Hagarville, Arkansas
Current Conditions -  °F | °C
As of 5:53 PM on Friday 31 Oct 2014 (Local Time) from KRUE Reporting Station
Clear Clear  
Wind Chill: 56°   Ceiling: Unl
Heat Index: 56°   Visibility: 10mi
Dew Point: 23°   Wind: 13mph
Humidity: 28%   Direction: 10°N
Pressure: 30.29"   Gusts: 21mph
Location:  35.52°N, 93.33°W
Report Text: KRUE 312253Z AUTO 01011G18KT 10SM CLR 13/M05 A3029 RMK AO2 SLP254 T01331050
Loading
Personal Weather Stations






























Interactive Weather Map
Tropical Storm Tracking
New forecast layout! Learn more

10-Day Weather Forecast

Advertisements
Track Severe Weather on mobile